الصفحة الرئيسية
METAR-TAF:

METAR-TAF

مطار :

Pine Ridge, داكوتا الجنوبية, الولايات المتحدة

دائرة عرض: 43-01-32N, خط طول: 102-31-23W, ارتفاع: 1015 متر

مراقبة الطقس الحالي

تاريخ ووقت الإصدار 1ساعة و 1 دقيقة قبل الساعة 02:52UTC
رياح هادئة
درجة الحرارة -13°درجة مئوية
الرطوبة 92%
ضغط 1026 hPa
الرؤية: 16.1 كم
سماء صافية

METAR: KIEN 100252Z AUTO 00000KT 10SM CLR M13/M14 A3029 RMK AO2 SLP319 T11281139 58006 $

زمن: 20:53 (03:53 UTC)


TAF: مفقودة

أرصاد الطقس والتوقعات من أكثر من 4000 مطار (تقارير الطقس للمطار METAR والتنبؤ بالطقس بالمطارTAF).

المحطات المتاحة هي النقط الصفراء والحمراء على الخريطة.

حرك المؤشر فوق النقطة لمعرفة اسم المحطة.

ثم انقر لمعرفة أرصاد وتوقعات الطقس.

لتغيير الخارطة: اضغط على الأزرار الخضراء مع رمز الصليب الأسود للتكبير. على الزر الأخضر مع شرطة للتصغير، أو على الأسهم الخضراء للخرائط المجاورة.


METAR-TAF: